La Center, Kentucky
Current Conditions -  °F | °C
As of 7:53 AM on Sunday 23 Nov 2014 (Local Time) from KPAH Reporting Station
Overcast Overcast  
Wind Chill: 57°   Ceiling: 2200
Heat Index: 57°   Visibility: 10mi
Dew Point: 48°   Wind: 12mph
Humidity: 72%   Direction: 140°SE
Pressure: 29.78"   Gusts: NA
Location:  37.08°N, 88.97°W
Report Text: KPAH 231353Z 14010KT 10SM OVC022 14/09 A2978 RMK AO2 SLP081 T01390089 $
Loading
Personal Weather Stations






























Interactive Weather Map New forecast layout! Learn more

10-Day Weather Forecast

Advertisements
Track Severe Weather on mobile